LKBE weather

Benešov Airport
Benešov, Central Bohemian Region, Czechia

Public forecast

Using degrees Celsius for public forecast. Weather courtesy of forecast.io.

Closest aviation weather report (METAR) to Benešov Airport

Closest report is Kbely Air Base, 23.2 nm (42.9 km) N. Retrieved 2019/10/21 02:00 UTC (13 minutes ago):

LKKB 210200Z 17002KT 7000 NSC 10/10 Q1014

Closest aviation forecast (TAF) to Benešov Airport

Closest forecast is Kbely Air Base, 23.2 nm (42.9 km) N. Retrieved 2019-10-21 00:00 UTC (2 hours ago):

TAF LKKB 202300Z 2100/2200 VRB02KT CAVOK BECMG 2101/2103 4000 MIFG BR BKN003 TEMPO 2104/2109 0600 FG VV001 BECMG 2108/2111 9999 BKN007 BECMG 2111/2113 CAVOK